Time;durP1;ratioP1;P1;durP2;ratioP2;P2;SDS_P1;SDS_P2;PMS_P1;PMS_P2;Temp;Humidity;BMP_temperature;BMP_pressure;BME280_temperature;BME280_humidity;BME280_pressure;Samples;Min_cycle;Max_cycle;Signal;HPM_P1;HPM_P2
2022/10/09 00:02:33;;;;;;;15.13;8.05;;;;;;;11.17;90.74;100400.30;1695208;84;21178;-80
2022/10/09 00:05:38;;;;;;;17.15;7.90;;;;;;;11.20;90.84;100389.00;1695276;84;21219;-81
2022/10/09 00:08:45;;;;;;;16.50;8.05;;;;;;;11.21;90.55;100383.84;1695298;84;21195;-81
2022/10/09 00:11:49;;;;;;;15.45;8.03;;;;;;;11.15;90.80;100379.09;1694211;84;21207;-81
2022/10/09 00:14:54;;;;;;;13.43;7.60;;;;;;;11.24;90.49;100375.29;1694306;84;22494;-81
2022/10/09 00:18:00;;;;;;;14.85;8.35;;;;;;;11.17;90.45;100375.66;1692631;83;21288;-81
2022/10/09 00:21:04;;;;;;;12.28;7.62;;;;;;;11.15;90.71;100374.11;1682483;85;21241;-81
2022/10/09 00:24:12;;;;;;;11.90;7.92;;;;;;;11.13;90.80;100367.97;1683249;85;21204;-81
2022/10/09 00:27:18;;;;;;;14.58;8.13;;;;;;;11.04;91.09;100363.56;1683230;85;21735;-81
2022/10/09 00:30:24;;;;;;;12.85;7.75;;;;;;;10.93;91.66;100367.03;1682651;84;21238;-81
2022/10/09 00:33:30;;;;;;;15.10;8.03;;;;;;;10.95;91.98;100363.59;1681732;85;21180;-80
2022/10/09 00:36:36;;;;;;;12.73;8.98;;;;;;;10.89;92.10;100360.73;1681794;85;21754;-80
2022/10/09 00:39:42;;;;;;;19.87;8.33;;;;;;;10.88;92.08;100361.77;1681778;85;21251;-81
2022/10/09 00:42:48;;;;;;;16.10;8.15;;;;;;;10.88;92.30;100363.13;1683056;85;21744;-81
2022/10/09 00:45:58;;;;;;;16.05;8.70;;;;;;;10.83;92.50;100358.70;1681785;84;21231;-81
2022/10/09 00:49:14;;;;;;;16.27;8.95;;;;;;;10.94;92.17;100359.67;1683295;85;21236;-80
2022/10/09 00:52:21;;;;;;;21.50;8.65;;;;;;;10.83;92.50;100355.97;1681943;85;21196;-80
2022/10/09 00:55:26;;;;;;;17.82;8.93;;;;;;;10.97;92.00;100370.28;1681817;85;21267;-80
2022/10/09 00:58:31;;;;;;;18.45;8.45;;;;;;;10.83;92.42;100359.56;1683146;85;21200;-80
2022/10/09 01:01:37;;;;;;;14.83;8.40;;;;;;;10.73;92.79;100360.28;1681648;85;21239;-81
2022/10/09 01:04:44;;;;;;;14.33;9.45;;;;;;;10.68;93.06;100365.40;1681832;85;22201;-81
2022/10/09 01:07:58;;;;;;;18.90;8.80;;;;;;;10.70;93.15;100377.04;1683045;85;21200;-81
2022/10/09 01:11:07;;;;;;;14.70;8.35;;;;;;;10.71;93.11;100374.63;1683169;85;21204;-81
2022/10/09 01:14:33;;;;;;;16.75;8.98;;;;;;;10.80;92.83;100377.69;1682854;85;21192;-80
2022/10/09 01:17:52;;;;;;;12.47;8.15;;;;;;;10.77;92.60;100378.02;1681865;85;21204;-81
2022/10/09 01:21:30;;;;;;;13.85;8.83;;;;;;;10.80;92.22;100376.31;1683140;84;21794;-81
2022/10/09 01:24:44;;;;;;;17.45;8.30;;;;;;;10.78;92.47;100372.92;1684323;85;21196;-81
2022/10/09 01:27:49;;;;;;;15.90;8.85;;;;;;;10.81;92.28;100374.43;1682975;85;21204;-80
2022/10/09 01:30:55;;;;;;;19.20;8.98;;;;;;;10.78;92.18;100368.81;1683417;85;21223;-80
2022/10/09 01:34:01;;;;;;;24.25;8.98;;;;;;;10.79;92.10;100372.40;1682869;85;21188;-81
2022/10/09 01:37:08;;;;;;;16.00;8.80;;;;;;;10.68;92.64;100370.88;1683846;85;21263;-80
2022/10/09 01:40:16;;;;;;;16.97;9.03;;;;;;;10.71;92.69;100367.80;1683760;85;21212;-80
2022/10/09 01:43:22;;;;;;;13.48;9.00;;;;;;;10.69;92.51;100370.72;1683800;85;21314;-80
2022/10/09 01:46:36;;;;;;;18.98;8.63;;;;;;;10.62;92.88;100367.48;1682805;85;21813;-81
2022/10/09 01:50:17;;;;;;;22.93;9.13;;;;;;;10.70;92.71;100358.73;1684144;85;21204;-81
2022/10/09 01:53:25;;;;;;;19.75;8.80;;;;;;;10.68;92.75;100357.19;1682991;85;21196;-81
2022/10/09 01:56:30;;;;;;;20.32;8.95;;;;;;;10.66;92.93;100357.89;1684578;85;21247;-81
2022/10/09 01:59:36;;;;;;;21.00;8.88;;;;;;;10.73;92.35;100353.44;1684208;85;21196;-81
2022/10/09 02:02:43;;;;;;;18.35;9.63;;;;;;;10.65;92.38;100350.20;1683582;85;21858;-81
2022/10/09 02:05:50;;;;;;;17.52;8.93;;;;;;;10.44;93.09;100355.37;1684306;85;21232;-81
2022/10/09 02:08:51;;;;;;;15.38;8.53;;;;;;;10.56;92.82;100355.36;1683005;85;21184;-80
2022/10/09 02:11:46;;;;;;;14.93;7.47;;;;;;;10.40;93.76;100356.27;1685328;85;21137;-81
2022/10/09 02:14:34;;;;;;;15.03;9.75;;;;;;;10.39;93.99;100352.31;1684243;85;21208;-81
2022/10/09 02:17:41;;;;;;;15.55;9.03;;;;;;;10.40;94.01;100354.90;1684415;85;21754;-81
2022/10/09 02:20:50;;;;;;;23.77;8.65;;;;;;;10.33;94.34;100352.50;1683640;85;21231;-81
2022/10/09 02:23:57;;;;;;;16.70;8.50;;;;;;;10.31;94.50;100354.58;1684543;85;21196;-81
2022/10/09 02:27:02;;;;;;;17.45;9.38;;;;;;;10.27;94.79;100353.20;1684134;85;21197;-80
2022/10/09 02:30:08;;;;;;;14.65;8.48;;;;;;;10.22;95.24;100351.48;1684220;85;21735;-80
2022/10/09 02:33:13;;;;;;;20.10;8.98;;;;;;;10.20;95.38;100340.69;1683648;85;21244;-80
2022/10/09 02:36:19;;;;;;;17.05;8.33;;;;;;;10.20;95.35;100343.94;1684298;85;21188;-80
2022/10/09 02:39:25;;;;;;;23.73;9.23;;;;;;;10.20;95.36;100338.48;1684230;85;21168;-80
2022/10/09 02:42:31;;;;;;;18.65;8.60;;;;;;;10.19;95.47;100346.34;1684018;85;21287;-80
2022/10/09 02:45:37;;;;;;;12.28;8.03;;;;;;;10.26;95.36;100344.67;1683116;85;21224;-80
2022/10/09 02:48:37;;;;;;;12.37;8.50;;;;;;;10.17;95.55;100338.84;1684316;85;21176;-81
2022/10/09 02:51:41;;;;;;;17.12;8.38;;;;;;;10.18;95.55;100335.93;1683013;85;21193;-80
2022/10/09 02:54:47;;;;;;;19.05;9.13;;;;;;;10.19;95.49;100344.46;1684321;85;21486;-80
2022/10/09 02:57:53;;;;;;;25.35;8.30;;;;;;;10.27;95.30;100334.59;1684242;85;21192;-80
2022/10/09 03:01:00;;;;;;;14.13;7.78;;;;;;;10.23;95.26;100325.84;1682939;85;21184;-80
2022/10/09 03:04:06;;;;;;;13.65;8.13;;;;;;;10.19;95.23;100328.06;1684183;85;21240;-81
2022/10/09 03:07:12;;;;;;;19.67;8.73;;;;;;;10.25;95.24;100334.73;1683110;84;21192;-81
2022/10/09 03:10:17;;;;;;;17.85;9.28;;;;;;;10.20;95.32;100333.86;1684347;85;21192;-80
2022/10/09 03:13:18;;;;;;;17.32;8.68;;;;;;;10.26;95.09;100329.64;1683977;85;21176;-80
2022/10/09 03:16:25;;;;;;;20.82;8.48;;;;;;;10.36;94.57;100325.34;1684018;85;21177;-80
2022/10/09 03:19:31;;;;;;;16.32;8.75;;;;;;;10.24;94.83;100320.22;1684184;85;21184;-80
2022/10/09 03:22:38;;;;;;;11.83;7.47;;;;;;;10.25;95.18;100319.70;1682146;85;21275;-80
2022/10/09 03:25:45;;;;;;;11.57;8.13;;;;;;;10.08;95.84;100314.77;1683279;85;21193;-81
2022/10/09 03:28:54;;;;;;;19.80;8.48;;;;;;;10.08;96.14;100314.77;1681735;85;21251;-80
2022/10/09 03:31:59;;;;;;;12.98;7.33;;;;;;;10.11;96.20;100309.45;1682705;84;21857;-80
2022/10/09 03:35:04;;;;;;;17.02;8.33;;;;;;;10.08;96.18;100312.55;1683028;85;21280;-80
2022/10/09 03:38:11;;;;;;;19.20;8.03;;;;;;;10.16;95.89;100299.73;1683066;85;21204;-80
2022/10/09 03:41:17;;;;;;;13.68;8.68;;;;;;;10.22;95.68;100303.64;1683015;85;21172;-81
2022/10/09 03:44:23;;;;;;;13.80;7.53;;;;;;;10.25;95.61;100301.94;1682172;85;21260;-82
2022/10/09 03:47:29;;;;;;;14.75;7.28;;;;;;;10.19;95.65;100299.36;1681686;84;21255;-80
2022/10/09 03:50:27;;;;;;;;;;;;;;;10.11;96.25;100308.08;1685455;85;21240;-80
2022/10/09 03:53:32;;;;;;;12.33;7.67;;;;;;;10.16;96.35;100298.84;1682775;85;20203;-80
2022/10/09 03:56:39;;;;;;;19.32;8.15;;;;;;;10.19;96.42;100295.78;1682999;85;21177;-80
2022/10/09 03:59:45;;;;;;;16.90;8.28;;;;;;;10.14;96.80;100295.45;1683013;85;21252;-80
2022/10/09 04:02:51;;;;;;;11.57;7.45;;;;;;;10.18;96.80;100289.98;1682671;84;21276;-80
2022/10/09 04:05:57;;;;;;;17.57;7.95;;;;;;;10.25;96.67;100292.37;1683106;85;21180;-80
2022/10/09 04:09:04;;;;;;;20.10;7.03;;;;;;;10.47;95.89;100290.26;1682929;85;21771;-80
2022/10/09 04:12:11;;;;;;;15.93;7.30;;;;;;;10.49;95.63;100297.79;1681636;85;21224;-80
2022/10/09 04:15:19;;;;;;;11.73;7.47;;;;;;;10.60;95.22;100292.97;1681760;85;21181;-80
2022/10/09 04:18:25;;;;;;;15.43;6.53;;;;;;;10.55;95.39;100296.23;1682314;84;21232;-80
2022/10/09 04:21:19;;;;;;;11.22;6.55;;;;;;;10.47;96.15;100293.52;1682874;85;21196;-80
2022/10/09 04:24:25;;;;;;;17.42;7.53;;;;;;;10.55;96.15;100288.55;1682242;84;21289;-80
2022/10/09 04:27:31;;;;;;;18.00;6.35;;;;;;;10.61;95.93;100287.83;1684080;85;21204;-81
2022/10/09 04:30:37;;;;;;;18.25;7.28;;;;;;;10.66;95.61;100279.94;1684132;85;21184;-81
2022/10/09 04:33:43;;;;;;;11.63;6.72;;;;;;;10.69;95.52;100272.75;1683643;85;21365;-80
2022/10/09 04:36:49;;;;;;;18.65;6.55;;;;;;;10.83;94.96;100265.16;1684489;85;21196;-80
2022/10/09 04:39:56;;;;;;;17.48;6.80;;;;;;;11.01;94.21;100267.63;1684248;85;21243;-81
2022/10/09 04:43:02;;;;;;;12.75;5.45;;;;;;;11.07;93.70;100268.78;1684124;85;21303;-81
2022/10/09 04:46:12;;;;;;;15.95;7.20;;;;;;;11.11;93.30;100267.39;1684112;85;21396;-81
2022/10/09 04:49:20;;;;;;;20.05;6.97;;;;;;;11.16;92.90;100258.97;1684456;85;21236;-80
2022/10/09 04:52:26;;;;;;;11.60;6.28;;;;;;;11.28;92.23;100265.38;1684516;85;21192;-81
2022/10/09 04:55:26;;;;;;;12.90;5.92;;;;;;;11.33;91.47;100268.42;1683093;85;21204;-80
2022/10/09 04:58:18;;;;;;;11.90;6.20;;;;;;;11.36;91.39;100269.44;1684216;85;21833;-80
2022/10/09 05:01:27;;;;;;;14.28;5.97;;;;;;;11.40;90.98;100270.27;1684183;85;21180;-80
2022/10/09 05:04:22;;;;;;;14.63;6.37;;;;;;;11.44;90.97;100267.50;1683484;85;21232;-82
2022/10/09 05:07:27;;;;;;;9.23;6.00;;;;;;;11.52;90.62;100273.41;1684649;85;21196;-82
2022/10/09 05:10:33;;;;;;;22.35;6.67;;;;;;;11.63;89.89;100277.63;1683246;85;21212;-82
2022/10/09 05:13:40;;;;;;;21.37;6.83;;;;;;;11.71;89.68;100268.79;1684374;85;21236;-80
2022/10/09 05:16:48;;;;;;;10.20;5.53;;;;;;;11.76;89.59;100270.48;1684281;85;21193;-80
2022/10/09 05:19:56;;;;;;;20.17;6.97;;;;;;;11.85;89.68;100274.53;1683034;85;21251;-81
2022/10/09 05:23:02;;;;;;;12.95;5.35;;;;;;;11.96;88.63;100270.84;1683150;85;21204;-81
2022/10/09 05:26:13;;;;;;;13.18;5.50;;;;;;;12.09;87.91;100263.84;1683251;83;21350;-80
2022/10/09 05:29:19;;;;;;;12.05;5.85;;;;;;;12.18;87.66;100256.72;1683142;85;21203;-80
2022/10/09 05:32:25;;;;;;;15.48;6.40;;;;;;;12.21;87.16;100257.72;1684397;85;21237;-80
2022/10/09 05:35:31;;;;;;;20.15;5.80;;;;;;;12.34;86.64;100264.45;1683471;85;21275;-81
2022/10/09 05:38:36;;;;;;;12.03;5.78;;;;;;;12.37;85.85;100266.80;1684309;85;21196;-81
2022/10/09 05:41:42;;;;;;;17.75;5.45;;;;;;;12.37;85.47;100264.90;1684336;85;21176;-80
2022/10/09 05:44:47;;;;;;;10.05;5.97;;;;;;;12.46;84.54;100262.92;1683528;85;21232;-81
2022/10/09 05:47:52;;;;;;;12.30;5.28;;;;;;;12.53;84.37;100257.86;1684277;85;21252;-80
2022/10/09 05:50:57;;;;;;;10.05;5.17;;;;;;;12.71;83.69;100255.26;1683233;85;21838;-80
2022/10/09 05:54:04;;;;;;;16.37;5.33;;;;;;;12.73;83.42;100249.89;1684248;85;21197;-80
2022/10/09 05:57:09;;;;;;;15.72;5.70;;;;;;;12.79;82.98;100246.89;1684225;85;21766;-80
2022/10/09 06:00:08;;;;;;;19.62;5.37;;;;;;;12.77;83.12;100247.62;1684216;85;21807;-80
2022/10/09 06:03:15;;;;;;;11.45;5.30;;;;;;;12.68;84.14;100250.98;1684300;85;21184;-81
2022/10/09 06:06:20;;;;;;;14.73;5.42;;;;;;;12.73;83.87;100232.58;1683044;85;21259;-80
2022/10/09 06:09:28;;;;;;;29.67;6.10;;;;;;;12.80;83.43;100239.01;1684290;85;22009;-81
2022/10/09 06:12:36;;;;;;;9.27;5.10;;;;;;;12.85;83.58;100238.44;1685219;85;21263;-81
2022/10/09 06:15:42;;;;;;;14.70;4.97;;;;;;;12.92;82.98;100240.20;1683963;85;21251;-81
2022/10/09 06:18:43;;;;;;;14.85;5.15;;;;;;;13.07;82.31;100245.64;1683113;85;21204;-81
2022/10/09 06:21:48;;;;;;;19.40;5.30;;;;;;;13.06;81.89;100246.69;1683019;85;21800;-80
2022/10/09 06:24:54;;;;;;;11.40;5.10;;;;;;;13.06;82.39;100238.45;1684274;85;21215;-81
2022/10/09 06:28:01;;;;;;;12.03;4.83;;;;;;;13.24;81.99;100240.80;1682859;83;21267;-81
2022/10/09 06:31:12;;;;;;;12.07;4.85;;;;;;;13.36;81.93;100243.86;1682603;85;21201;-81
2022/10/09 06:34:17;;;;;;;11.12;5.22;;;;;;;13.44;81.83;100243.21;1682818;85;21216;-81
2022/10/09 06:37:22;;;;;;;10.80;4.67;;;;;;;13.53;81.40;100237.06;1681460;85;21358;-80
2022/10/09 06:40:28;;;;;;;12.28;5.28;;;;;;;13.57;81.85;100238.90;1682573;85;21216;-81
2022/10/09 06:43:32;;;;;;;8.23;4.83;;;;;;;13.67;80.98;100237.50;1682687;85;21194;-81
2022/10/09 06:46:44;;;;;;;9.83;4.78;;;;;;;13.74;80.88;100232.93;1681845;85;21237;-81
2022/10/09 06:49:48;;;;;;;;;;;;;;;13.79;80.85;100228.21;1686343;85;21192;-80
2022/10/09 06:52:55;;;;;;;7.08;4.62;;;;;;;13.88;80.58;100232.52;1681543;85;20219;-81
2022/10/09 06:56:03;;;;;;;11.08;5.25;;;;;;;13.91;80.93;100236.22;1682884;85;21499;-80
2022/10/09 06:59:09;;;;;;;9.73;5.42;;;;;;;13.95;80.47;100221.02;1683118;85;21184;-81
2022/10/09 07:02:16;;;;;;;14.93;5.45;;;;;;;13.96;80.85;100228.74;1683035;85;21184;-80
2022/10/09 07:05:22;;;;;;;12.18;4.87;;;;;;;13.97;81.01;100242.81;1683083;84;21204;-81
2022/10/09 07:08:29;;;;;;;17.98;5.45;;;;;;;13.91;81.35;100232.63;1681779;85;21204;-81
2022/10/09 07:11:33;;;;;;;12.35;4.40;;;;;;;13.95;81.53;100233.40;1681774;85;21204;-80
2022/10/09 07:14:25;;;;;;;9.88;4.90;;;;;;;14.05;81.47;100228.39;1683054;85;21192;-82
2022/10/09 07:17:32;;;;;;;15.53;5.25;;;;;;;14.16;80.74;100222.88;1682112;85;21727;-82
2022/10/09 07:20:38;;;;;;;11.93;4.95;;;;;;;14.37;79.76;100225.21;1682898;85;21192;-82
2022/10/09 07:23:43;;;;;;;11.38;4.95;;;;;;;14.54;79.18;100219.73;1663354;85;21176;-81
2022/10/09 07:26:53;;;;;;;13.48;4.35;;;;;;;14.70;79.58;100225.41;1681785;85;21838;-81
2022/10/09 07:29:59;;;;;;;12.50;4.30;;;;;;;14.73;78.91;100225.01;1683210;85;21227;-81
2022/10/09 07:33:05;;;;;;;9.63;5.00;;;;;;;14.79;78.74;100218.14;1684260;85;21196;-81
2022/10/09 07:36:12;;;;;;;9.75;4.08;;;;;;;14.91;78.74;100215.62;1684209;85;21582;-82
2022/10/09 07:39:13;;;;;;;10.70;4.65;;;;;;;14.96;78.01;100228.27;1684922;85;21822;-81
2022/10/09 07:42:19;;;;;;;6.25;3.95;;;;;;;15.03;77.95;100220.86;1684378;85;21183;-81
2022/10/09 07:45:25;;;;;;;10.93;4.75;;;;;;;15.09;78.11;100221.93;1683496;85;22568;-82
2022/10/09 07:48:32;;;;;;;9.95;4.20;;;;;;;15.11;78.04;100218.98;1683057;85;21216;-82
2022/10/09 07:51:37;;;;;;;8.60;4.40;;;;;;;15.21;77.78;100234.58;1684024;85;21267;-82
2022/10/09 07:54:43;;;;;;;9.13;3.90;;;;;;;15.27;77.67;100219.43;1684584;85;21235;-82
2022/10/09 07:57:49;;;;;;;7.28;4.00;;;;;;;15.31;78.25;100218.48;1683506;85;21243;-82
2022/10/09 08:00:54;;;;;;;11.55;4.72;;;;;;;15.45;78.00;100215.23;1684301;85;21200;-82
2022/10/09 08:04:00;;;;;;;8.15;4.25;;;;;;;15.59;76.90;100224.67;1684235;85;21207;-81
2022/10/09 08:07:06;;;;;;;16.27;5.37;;;;;;;15.68;77.03;100224.50;1683908;85;22502;-82
2022/10/09 08:10:12;;;;;;;11.90;4.45;;;;;;;15.87;76.49;100220.05;1684344;85;21196;-81
2022/10/09 08:13:19;;;;;;;10.28;4.30;;;;;;;16.03;76.01;100217.67;1683097;85;21220;-81
2022/10/09 08:16:28;;;;;;;17.35;4.58;;;;;;;16.17;75.22;100214.91;1684315;85;21196;-81
2022/10/09 08:19:34;;;;;;;10.93;4.37;;;;;;;16.32;75.53;100201.16;1684242;85;21755;-80
2022/10/09 08:22:41;;;;;;;14.63;4.60;;;;;;;16.58;74.44;100199.40;1683543;85;21794;-80
2022/10/09 08:25:48;;;;;;;7.58;3.72;;;;;;;16.70;74.39;100207.83;1684258;85;21231;-80
2022/10/09 08:29:04;;;;;;;11.95;4.50;;;;;;;16.83;73.62;100207.28;1683173;85;21276;-81
2022/10/09 08:32:10;;;;;;;7.70;4.22;;;;;;;16.94;72.65;100205.76;1691353;85;21754;-81
2022/10/09 08:35:17;;;;;;;11.28;4.30;;;;;;;16.98;72.32;100195.09;1692758;85;21738;-81
2022/10/09 08:38:23;;;;;;;10.05;4.53;;;;;;;16.99;72.23;100195.43;1691858;84;21271;-82
2022/10/09 08:42:00;;;;;;;12.00;4.72;;;;;;;17.02;72.07;100199.11;1692721;84;21196;-80
2022/10/09 08:45:06;;;;;;;11.70;3.77;;;;;;;17.03;71.43;100192.00;1691896;85;21234;-81
2022/10/09 08:48:20;;;;;;;10.35;3.47;;;;;;;17.03;71.85;100186.98;1692187;85;21722;-81
2022/10/09 08:51:30;;;;;;;14.43;4.20;;;;;;;17.05;72.13;100180.17;1692758;85;21809;-81
2022/10/09 08:54:42;;;;;;;7.85;4.05;;;;;;;17.03;72.12;100178.19;1692832;85;21541;-81
2022/10/09 08:57:41;;;;;;;9.68;4.22;;;;;;;16.98;72.17;100173.83;1693526;85;21163;-81
2022/10/09 09:00:37;;;;;;;6.92;3.50;;;;;;;17.09;71.88;100169.54;1692786;85;21192;-81
2022/10/09 09:03:34;;;;;;;5.65;3.47;;;;;;;16.98;73.02;100160.02;1692723;85;21192;-81
2022/10/09 09:06:47;;;;;;;10.98;4.08;;;;;;;17.06;72.57;100164.44;1692766;85;21207;-81
2022/10/09 09:09:47;;;;;;;8.43;3.77;;;;;;;17.09;72.39;100152.42;1691394;85;21232;-81
2022/10/09 09:13:03;;;;;;;5.72;3.62;;;;;;;17.23;72.06;100161.47;1692745;85;21203;-81
2022/10/09 09:15:59;;;;;;;11.40;3.80;;;;;;;17.23;71.98;100153.72;1692809;85;21235;-81
2022/10/09 09:19:02;;;;;;;12.33;4.00;;;;;;;17.27;71.76;100153.58;1675142;84;21214;-80
2022/10/09 09:21:51;;;;;;;14.75;4.40;;;;;;;17.45;70.32;100161.92;1692666;85;21243;-81
2022/10/09 09:24:59;;;;;;;9.38;3.47;;;;;;;17.38;70.54;100161.98;1692755;84;21793;-81
2022/10/09 09:27:46;;;;;;;9.03;4.30;;;;;;;17.38;70.69;100161.14;1692605;85;21251;-80
2022/10/09 09:30:48;;;;;;;14.40;3.92;;;;;;;17.37;70.78;100167.75;1692519;84;21248;-80
2022/10/09 09:34:35;;;;;;;10.75;3.90;;;;;;;17.37;70.97;100164.98;1690994;85;21207;-81
2022/10/09 09:37:40;;;;;;;14.00;4.12;;;;;;;17.40;71.30;100165.05;1690955;85;21515;-81
2022/10/09 09:40:46;;;;;;;14.83;4.47;;;;;;;17.48;70.74;100150.42;1690542;85;21204;-81
2022/10/09 09:43:52;;;;;;;9.50;3.65;;;;;;;17.51;70.80;100154.12;1690482;85;21386;-81
2022/10/09 09:46:52;;;;;;;16.25;3.87;;;;;;;17.66;70.78;100147.41;1690629;85;21209;-81
2022/10/09 09:49:45;;;;;;;9.13;3.60;;;;;;;17.81;70.22;100151.53;1689630;85;21358;-81
2022/10/09 09:52:51;;;;;;;6.90;3.20;;;;;;;17.93;70.22;100142.51;1690773;85;21217;-81
2022/10/09 09:55:58;;;;;;;9.73;3.40;;;;;;;18.05;70.17;100135.13;1690522;85;21834;-81
2022/10/09 09:59:04;;;;;;;10.25;3.40;;;;;;;17.97;70.54;100134.88;1691623;85;21276;-81
2022/10/09 10:02:30;;;;;;;7.50;3.50;;;;;;;17.93;70.52;100128.13;1690823;85;21219;-80
2022/10/09 10:05:39;;;;;;;11.83;3.60;;;;;;;17.79;70.83;100126.58;1690882;85;21779;-81
2022/10/09 10:08:45;;;;;;;12.37;3.62;;;;;;;17.81;70.73;100117.50;1668689;85;21284;-81
2022/10/09 10:12:08;;;;;;;7.92;3.85;;;;;;;17.77;71.02;100125.94;1695082;83;21771;-81
2022/10/09 10:15:33;;;;;;;7.05;4.15;;;;;;;17.74;71.66;100134.17;1662918;86;21770;-81
2022/10/09 10:19:00;;;;;;;15.80;3.95;;;;;;;17.62;72.44;100122.96;1690651;85;21212;-81
2022/10/09 10:22:13;;;;;;;14.18;4.00;;;;;;;17.70;72.33;100121.84;1708497;83;21167;-81
2022/10/09 10:25:22;;;;;;;9.93;4.08;;;;;;;17.82;72.46;100110.34;1708428;84;21199;-79
2022/10/09 10:28:34;;;;;;;10.55;3.40;;;;;;;17.91;71.52;100105.91;1708363;84;21191;-81
2022/10/09 10:32:01;;;;;;;11.18;3.98;;;;;;;18.01;70.87;100093.22;1706968;84;21187;-81
2022/10/09 10:35:18;;;;;;;11.03;3.35;;;;;;;18.01;70.59;100092.38;1707622;84;22481;-81
2022/10/09 10:38:35;;;;;;;12.98;4.28;;;;;;;17.99;70.22;100086.23;1706990;84;21196;-81
2022/10/09 10:41:41;;;;;;;14.70;3.55;;;;;;;17.90;70.76;100091.23;1708366;84;21204;-81
2022/10/09 10:44:51;;;;;;;10.75;3.75;;;;;;;17.95;70.77;100082.23;1724714;82;21232;-81
2022/10/09 10:47:59;;;;;;;15.10;3.95;;;;;;;17.88;70.58;100085.09;1737771;82;21173;-81
2022/10/09 10:51:18;;;;;;;10.58;3.67;;;;;;;17.85;71.30;100078.08;1736408;82;21216;-81
2022/10/09 10:54:50;;;;;;;10.38;3.83;;;;;;;17.84;71.10;100081.09;1736382;82;21307;-81
2022/10/09 10:58:10;;;;;;;10.25;4.10;;;;;;;17.74;71.96;100088.53;1736297;82;21189;-81
2022/10/09 11:01:45;;;;;;;10.00;3.45;;;;;;;17.69;72.50;100095.77;1737602;82;21173;-80
2022/10/09 11:05:03;;;;;;;12.60;4.00;;;;;;;17.86;71.45;100093.59;1728035;82;21224;-81
2022/10/09 11:08:38;;;;;;;8.38;3.52;;;;;;;17.87;71.67;100091.67;1736217;82;21189;-80
2022/10/09 11:12:08;;;;;;;16.62;4.17;;;;;;;17.81;71.69;100089.84;1737624;82;21304;-81
2022/10/09 11:15:59;;;;;;;11.22;4.30;;;;;;;17.88;71.31;100101.16;1737608;82;21237;-81
2022/10/09 11:19:25;;;;;;;14.28;4.35;;;;;;;17.86;71.84;100081.69;1737759;82;22229;-83
2022/10/09 11:23:07;;;;;;;11.65;4.00;;;;;;;17.92;71.92;100084.91;1746863;81;21821;-80
2022/10/09 11:26:17;;;;;;;11.43;4.50;;;;;;;17.83;72.29;100087.16;1745648;82;21196;-81
2022/10/09 11:29:37;;;;;;;13.38;3.87;;;;;;;17.89;72.43;100088.16;1748704;82;21188;-81
2022/10/09 11:33:01;;;;;;;7.62;3.47;;;;;;;17.96;72.12;100086.14;1748844;82;21244;-80
2022/10/09 11:36:14;;;;;;;6.05;3.40;;;;;;;18.00;72.26;100083.23;1747972;82;21223;-81
2022/10/09 11:39:29;;;;;;;13.10;3.98;;;;;;;18.01;72.33;100082.15;1748843;82;21208;-82
2022/10/09 11:42:36;;;;;;;14.33;4.75;;;;;;;18.03;72.10;100081.94;1748745;82;21192;-81
2022/10/09 11:45:56;;;;;;;11.80;4.25;;;;;;;18.08;71.97;100073.79;1747349;82;21227;-81
2022/10/09 11:49:18;;;;;;;15.28;4.35;;;;;;;18.17;71.46;100085.40;1748833;82;21192;-81
2022/10/09 11:52:46;;;;;;;8.45;3.17;;;;;;;18.12;72.11;100086.94;1747379;82;21251;-81
2022/10/09 11:55:52;;;;;;;13.75;3.87;;;;;;;18.16;71.46;100080.41;1748894;82;21223;-81
2022/10/09 11:59:09;;;;;;;11.85;4.35;;;;;;;18.19;71.73;100079.92;1748657;82;21176;-82
2022/10/09 12:02:33;;;;;;;10.45;3.65;;;;;;;18.24;71.62;100087.53;1748633;82;21758;-81
2022/10/09 12:05:46;;;;;;;13.62;5.05;;;;;;;18.27;71.78;100089.84;1748417;82;21214;-81
2022/10/09 12:09:04;;;;;;;11.55;4.08;;;;;;;18.33;71.47;100087.52;1747430;82;21192;-81
2022/10/09 12:12:17;;;;;;;10.43;3.92;;;;;;;18.36;71.07;100087.07;1749449;82;21192;-81
2022/10/09 12:15:34;;;;;;;12.55;4.58;;;;;;;18.34;71.41;100085.05;1747142;82;21201;-81
2022/10/09 12:18:48;;;;;;;10.25;3.83;;;;;;;18.33;71.34;100077.83;1748585;82;21235;-81
2022/10/09 12:22:02;;;;;;;10.23;3.90;;;;;;;18.42;71.31;100092.20;1747437;82;21284;-81
2022/10/09 12:25:39;;;;;;;10.82;4.37;;;;;;;18.46;70.92;100087.36;1745178;81;21208;-81
2022/10/09 12:28:57;;;;;;;9.55;3.70;;;;;;;18.42;71.06;100088.90;1744269;82;21311;-81
2022/10/09 12:32:07;;;;;;;6.85;4.03;;;;;;;18.43;71.30;100083.66;1744178;82;21861;-81
2022/10/09 12:35:43;;;;;;;11.25;4.00;;;;;;;18.52;70.91;100090.56;1745334;82;21220;-81
2022/10/09 12:38:49;;;;;;;11.75;4.20;;;;;;;18.59;70.68;100089.11;1745256;82;21188;-81
2022/10/09 12:41:50;;;;;;;25.60;4.15;;;;;;;18.63;70.55;100089.80;1744250;82;21193;-81
2022/10/09 12:44:55;;;;;;;9.85;4.58;;;;;;;18.63;70.69;100093.95;1745930;82;21529;-81
2022/10/09 12:48:01;;;;;;;12.37;4.47;;;;;;;18.67;71.05;100088.77;1745139;82;21358;-81
2022/10/09 12:51:07;;;;;;;14.13;4.58;;;;;;;18.64;70.91;100090.09;1744788;82;21244;-81
2022/10/09 12:54:15;;;;;;;12.70;4.42;;;;;;;18.64;70.86;100083.71;1745413;82;21192;-81
2022/10/09 12:57:22;;;;;;;13.90;4.60;;;;;;;18.56;71.16;100086.25;1745374;82;21300;-81
2022/10/09 13:00:30;;;;;;;14.28;4.22;;;;;;;18.64;71.23;100086.48;1745526;82;21216;-81
2022/10/09 13:03:46;;;;;;;10.40;4.15;;;;;;;18.62;71.06;100082.53;1745440;82;21185;-83
2022/10/09 13:06:55;;;;;;;19.55;4.62;;;;;;;18.64;71.19;100083.16;1745786;82;21204;-81
2022/10/09 13:10:12;;;;;;;12.00;4.47;;;;;;;18.57;71.14;100081.56;1745967;82;21152;-81
2022/10/09 13:13:31;;;;;;;9.28;4.35;;;;;;;18.49;71.13;100074.95;1744215;82;21189;-81
2022/10/09 13:16:52;;;;;;;15.13;4.62;;;;;;;18.48;71.25;100075.49;1714428;83;21749;-82
2022/10/09 13:20:00;;;;;;;14.47;4.67;;;;;;;18.39;71.81;100079.66;1732555;80;21160;-82
2022/10/09 13:23:11;;;;;;;10.95;4.47;;;;;;;18.36;71.97;100073.22;1715891;81;21350;-83
2022/10/09 13:26:20;;;;;;;14.50;4.47;;;;;;;18.29;72.45;100073.30;1745756;80;21264;-82
2022/10/09 13:29:26;;;;;;;11.68;4.60;;;;;;;18.24;72.75;100068.16;1744218;82;21240;-83
2022/10/09 13:32:32;;;;;;;12.23;4.97;;;;;;;18.37;72.00;100070.21;1743528;80;21744;-82
2022/10/09 13:35:39;;;;;;;17.40;5.12;;;;;;;18.36;72.24;100070.45;1744701;80;21168;-82
2022/10/09 13:38:45;;;;;;;15.03;4.85;;;;;;;18.31;72.47;100072.54;1747109;80;21172;-83
2022/10/09 13:41:56;;;;;;;10.30;5.00;;;;;;;18.28;72.54;100070.77;1730244;81;21322;-82
2022/10/09 13:44:57;;;;;;;8.23;4.45;;;;;;;18.22;72.59;100071.70;1743625;82;21272;-82
2022/10/09 13:48:03;;;;;;;9.63;5.72;;;;;;;18.13;72.84;100063.70;1743679;82;21185;-81
2022/10/09 13:51:16;;;;;;;12.63;5.17;;;;;;;18.10;73.20;100064.16;1744029;80;21466;-84
2022/10/09 13:54:23;;;;;;;11.90;5.25;;;;;;;18.11;73.18;100063.62;1743016;82;21212;-82
2022/10/09 13:57:30;;;;;;;10.13;5.28;;;;;;;18.06;73.49;100062.92;1743788;82;21252;-82
2022/10/09 14:00:37;;;;;;;12.63;4.78;;;;;;;18.04;73.62;100055.41;1744872;82;21193;-82
2022/10/09 14:03:42;;;;;;;14.68;5.47;;;;;;;18.10;73.68;100054.47;1744262;82;22260;-81
2022/10/09 14:06:49;;;;;;;11.08;4.85;;;;;;;18.08;73.86;100057.19;1743046;82;21854;-82
2022/10/09 14:09:55;;;;;;;15.72;4.58;;;;;;;18.09;73.81;100059.70;1744351;82;21217;-81
2022/10/09 14:13:01;;;;;;;12.55;5.42;;;;;;;18.08;73.93;100058.02;1742813;82;21236;-82
2022/10/09 14:16:12;;;;;;;11.08;5.55;;;;;;;18.01;74.27;100057.24;1743434;82;21213;-82
2022/10/09 14:19:18;;;;;;;14.68;6.20;;;;;;;18.00;74.44;100055.56;1727976;82;21193;-81
2022/10/09 14:22:24;;;;;;;10.43;5.35;;;;;;;17.96;74.62;100061.24;1739440;81;21184;-82
2022/10/09 14:25:35;;;;;;;11.60;5.33;;;;;;;17.95;74.79;100060.95;1740017;80;21167;-83
2022/10/09 14:28:48;;;;;;;8.95;5.45;;;;;;;17.92;75.00;100058.63;1734564;81;21771;-82
2022/10/09 14:31:58;;;;;;;10.25;4.67;;;;;;;17.91;75.21;100060.25;1741380;82;21201;-81